Time;durP1;ratioP1;P1;durP2;ratioP2;P2;SDS_P1;SDS_P2;PMS_P1;PMS_P2;Temp;Humidity;BMP_temperature;BMP_pressure;BME280_temperature;BME280_humidity;BME280_pressure;Samples;Min_cycle;Max_cycle;Signal;HPM_P1;HPM_P2
2020/12/07 00:00:11;;;;;;;18.23;8.38;;;-4.60;77.90;;;;;;5044045;28;20108;-67
2020/12/07 00:02:36;;;;;;;20.80;9.18;;;-4.60;78.00;;;;;;5047464;28;20132;-67
2020/12/07 00:05:04;;;;;;;16.90;8.50;;;-4.60;78.10;;;;;;5046268;28;20056;-67
2020/12/07 00:07:29;;;;;;;20.08;10.27;;;-4.60;78.00;;;;;;5046339;28;20475;-68
2020/12/07 00:09:55;;;;;;;17.75;7.85;;;-4.60;77.90;;;;;;5042065;28;20084;-67
2020/12/07 00:12:28;;;;;;;16.92;7.95;;;-4.60;78.00;;;;;;5042239;28;20028;-67
2020/12/07 00:14:54;;;;;;;17.48;7.57;;;-4.60;78.00;;;;;;5042422;28;20472;-67
2020/12/07 00:17:24;;;;;;;14.77;7.15;;;-4.60;78.10;;;;;;5043914;28;20049;-67
2020/12/07 00:19:51;;;;;;;15.88;8.00;;;-4.60;78.20;;;;;;5044733;28;20025;-68
2020/12/07 00:22:24;;;;;;;15.43;7.80;;;-4.60;78.10;;;;;;5045100;28;20026;-67
2020/12/07 00:24:51;;;;;;;17.20;8.20;;;-4.70;78.10;;;;;;5044700;28;20368;-68
2020/12/07 00:27:28;;;;;;;33.53;14.10;;;-4.70;78.10;;;;;;5034727;28;20032;-67
2020/12/07 00:29:55;;;;;;;18.77;8.05;;;-4.70;78.00;;;;;;5045029;28;20017;-67
2020/12/07 00:32:21;;;;;;;20.23;10.05;;;-4.70;78.00;;;;;;5042643;28;20025;-67
2020/12/07 00:34:47;;;;;;;22.10;9.77;;;-4.70;78.00;;;;;;5044404;28;20474;-67
2020/12/07 00:37:14;;;;;;;25.55;12.93;;;-4.80;77.90;;;;;;5042949;28;20459;-67
2020/12/07 00:39:39;;;;;;;13.07;6.70;;;-4.70;78.00;;;;;;5044154;28;20032;-67
2020/12/07 00:42:07;;;;;;;17.25;7.90;;;-4.80;78.10;;;;;;5044498;28;20029;-67
2020/12/07 00:44:32;;;;;;;17.30;8.55;;;-4.80;78.20;;;;;;5042221;28;20025;-67
2020/12/07 00:46:58;;;;;;;21.30;9.27;;;-4.70;78.40;;;;;;5043437;28;20516;-67
2020/12/07 00:49:24;;;;;;;19.10;9.52;;;-4.70;78.40;;;;;;5042929;28;20115;-67
2020/12/07 00:51:50;;;;;;;16.85;7.28;;;-4.70;78.50;;;;;;5044595;28;20033;-71
2020/12/07 00:54:16;;;;;;;16.23;8.05;;;-4.70;78.50;;;;;;5042763;28;20029;-67
2020/12/07 00:56:42;;;;;;;14.40;8.10;;;-4.70;78.50;;;;;;5034589;28;20075;-67
2020/12/07 00:59:09;;;;;;;15.93;7.03;;;-4.70;78.50;;;;;;5043805;28;20110;-67
2020/12/07 01:01:35;;;;;;;18.67;8.55;;;-4.70;78.50;;;;;;5032142;28;20076;-66
2020/12/07 01:04:02;;;;;;;17.65;9.07;;;-4.70;78.50;;;;;;5040643;28;20021;-67
2020/12/07 01:06:29;;;;;;;30.05;13.90;;;-4.70;78.50;;;;;;5044015;28;20029;-66
2020/12/07 01:08:55;;;;;;;16.63;7.80;;;-4.70;78.50;;;;;;5041080;28;20028;-67
2020/12/07 01:11:21;;;;;;;20.25;8.70;;;-4.70;78.30;;;;;;5036886;28;20057;-67
2020/12/07 01:13:46;;;;;;;15.65;7.30;;;-4.70;78.40;;;;;;5043356;28;20439;-67
2020/12/07 01:16:16;;;;;;;16.75;8.88;;;-4.70;78.50;;;;;;5041223;28;20018;-67
2020/12/07 01:18:42;;;;;;;19.48;8.88;;;-4.80;78.40;;;;;;5035419;28;20426;-67
2020/12/07 01:21:08;;;;;;;16.50;7.18;;;-4.80;78.40;;;;;;5044251;28;20020;-67
2020/12/07 01:23:34;;;;;;;17.83;8.95;;;-4.80;78.40;;;;;;5043650;28;20034;-67
2020/12/07 01:26:00;;;;;;;17.50;7.80;;;-4.80;78.30;;;;;;5044034;28;20021;-67
2020/12/07 01:28:25;;;;;;;17.63;9.52;;;-4.80;78.30;;;;;;5042618;28;20036;-66
2020/12/07 01:30:51;;;;;;;18.63;8.52;;;-4.80;78.40;;;;;;5042499;28;20455;-68
2020/12/07 01:33:17;;;;;;;21.95;10.50;;;-4.80;78.50;;;;;;5039541;28;20078;-67
2020/12/07 01:35:42;;;;;;;32.28;14.23;;;-4.80;79.20;;;;;;5042663;28;20017;-67
2020/12/07 01:38:08;;;;;;;26.42;11.73;;;-4.80;78.60;;;;;;5039914;28;20108;-67
2020/12/07 01:40:34;;;;;;;17.48;8.60;;;-4.80;78.50;;;;;;5041261;28;20047;-67
2020/12/07 01:42:59;;;;;;;23.08;8.70;;;-4.90;78.40;;;;;;5042896;28;20070;-67
2020/12/07 01:45:25;;;;;;;20.90;10.95;;;-4.90;78.40;;;;;;5037835;28;20043;-67
2020/12/07 01:47:51;;;;;;;19.48;7.95;;;-4.90;78.40;;;;;;5041526;28;20033;-72
2020/12/07 01:50:16;;;;;;;18.45;8.27;;;-4.90;78.30;;;;;;5040924;28;20029;-67
2020/12/07 01:52:43;;;;;;;18.90;8.70;;;-5.00;78.20;;;;;;5035008;28;20112;-67
2020/12/07 01:55:09;;;;;;;15.35;8.63;;;-5.00;78.30;;;;;;5043686;28;20020;-67
2020/12/07 01:57:35;;;;;;;15.30;7.75;;;-5.00;78.30;;;;;;5035751;28;20025;-68
2020/12/07 02:00:04;;;;;;;17.77;8.13;;;-5.00;78.30;;;;;;5041738;28;20529;-67
2020/12/07 02:02:30;;;;;;;13.50;7.32;;;-5.10;78.20;;;;;;5041100;28;20133;-67
2020/12/07 02:04:56;;;;;;;17.58;7.43;;;-5.10;78.30;;;;;;5040401;28;20121;-67
2020/12/07 02:07:21;;;;;;;15.70;7.28;;;-5.10;78.30;;;;;;5040472;28;20084;-67
2020/12/07 02:09:47;;;;;;;17.02;8.20;;;-5.20;78.10;;;;;;5036663;28;20112;-67
2020/12/07 02:12:13;;;;;;;17.45;7.97;;;-5.20;78.00;;;;;;5045255;28;20468;-67
2020/12/07 02:14:39;;;;;;;17.55;7.40;;;-5.20;78.00;;;;;;5038872;28;20053;-67
2020/12/07 02:17:04;;;;;;;25.70;9.93;;;-5.20;78.00;;;;;;5046154;28;20023;-67
2020/12/07 02:19:30;;;;;;;18.65;9.88;;;-5.30;78.10;;;;;;5040387;28;20073;-67
2020/12/07 02:21:56;;;;;;;12.18;6.90;;;-5.30;78.10;;;;;;5046919;28;20031;-69
2020/12/07 02:24:21;;;;;;;14.15;8.52;;;-5.30;78.00;;;;;;5047833;28;20124;-66
2020/12/07 02:26:47;;;;;;;14.32;7.53;;;-5.30;78.00;;;;;;5045910;28;20080;-67
2020/12/07 02:29:13;;;;;;;15.80;8.85;;;-5.40;77.90;;;;;;5037801;28;20052;-67
2020/12/07 02:31:38;;;;;;;16.98;7.85;;;-5.40;78.00;;;;;;5044427;28;20032;-67
2020/12/07 02:34:04;;;;;;;15.63;8.20;;;-5.40;78.00;;;;;;5044202;28;20116;-68
2020/12/07 02:36:30;;;;;;;16.73;7.75;;;-5.40;77.90;;;;;;5046450;28;20509;-67
2020/12/07 02:38:55;;;;;;;18.10;8.90;;;-5.40;78.00;;;;;;5046845;28;20167;-68
2020/12/07 02:41:21;;;;;;;20.48;8.75;;;-5.50;77.90;;;;;;5046603;28;20109;-67
2020/12/07 02:43:47;;;;;;;17.17;9.38;;;-5.50;77.80;;;;;;5046021;28;20045;-66
2020/12/07 02:46:13;;;;;;;19.48;9.68;;;-5.50;77.90;;;;;;5042478;28;20029;-71
2020/12/07 02:48:38;;;;;;;14.68;7.10;;;-5.50;77.90;;;;;;5045003;28;20033;-66
2020/12/07 02:51:04;;;;;;;18.25;8.25;;;-5.50;77.90;;;;;;5043575;28;20026;-67
2020/12/07 02:53:30;;;;;;;16.92;8.13;;;-5.50;78.00;;;;;;5040260;28;20053;-66
2020/12/07 02:55:56;;;;;;;17.23;8.80;;;-5.50;78.10;;;;;;5039546;28;20071;-73
2020/12/07 02:58:21;;;;;;;15.10;6.95;;;-5.50;78.00;;;;;;5048064;28;20028;-67
2020/12/07 03:00:47;;;;;;;18.92;8.15;;;-5.50;78.00;;;;;;5043039;28;20053;-65
2020/12/07 03:03:12;;;;;;;16.50;7.93;;;-5.50;78.00;;;;;;5044148;28;20046;-65
2020/12/07 03:05:38;;;;;;;15.23;7.32;;;-5.50;78.00;;;;;;5043692;28;20079;-65
2020/12/07 03:08:04;;;;;;;15.18;8.45;;;-5.50;78.00;;;;;;5043752;28;20032;-65
2020/12/07 03:10:30;;;;;;;16.52;8.80;;;-5.50;77.90;;;;;;5043869;28;20056;-65
2020/12/07 03:12:55;;;;;;;16.35;8.55;;;-5.60;77.90;;;;;;5043842;28;20100;-66
2020/12/07 03:15:21;;;;;;;16.58;8.52;;;-5.60;78.00;;;;;;5046681;28;20483;-66
2020/12/07 03:17:47;;;;;;;13.35;7.45;;;-5.60;78.10;;;;;;5044685;28;20029;-65
2020/12/07 03:20:12;;;;;;;13.98;7.72;;;-5.60;78.10;;;;;;5043370;28;20052;-65
2020/12/07 03:22:38;;;;;;;18.90;8.52;;;-5.60;78.10;;;;;;5042660;28;20449;-66
2020/12/07 03:25:04;;;;;;;15.27;8.00;;;-5.50;78.30;;;;;;5037883;28;20028;-67
2020/12/07 03:27:29;;;;;;;21.30;9.13;;;-5.50;78.30;;;;;;5039204;28;20025;-68
2020/12/07 03:29:55;;;;;;;18.83;8.57;;;-5.50;78.40;;;;;;5043465;28;20026;-69
2020/12/07 03:32:21;;;;;;;23.55;9.82;;;-5.50;78.40;;;;;;5044421;28;20037;-67
2020/12/07 03:34:46;;;;;;;15.07;7.97;;;-5.50;78.20;;;;;;5043290;28;20020;-68
2020/12/07 03:37:12;;;;;;;15.90;8.88;;;-5.50;78.10;;;;;;5037271;28;20035;-68
2020/12/07 03:39:38;;;;;;;17.17;8.48;;;-5.50;78.00;;;;;;5042644;28;20029;-68
2020/12/07 03:42:04;;;;;;;22.70;9.75;;;-5.50;78.10;;;;;;5041552;28;20025;-68
2020/12/07 03:44:29;;;;;;;18.17;9.25;;;-5.50;78.10;;;;;;5043994;28;20037;-67
2020/12/07 03:46:55;;;;;;;19.50;9.25;;;-5.50;78.20;;;;;;5044124;28;20037;-68
2020/12/07 03:49:21;;;;;;;22.58;9.40;;;-5.50;78.20;;;;;;5044001;28;20025;-67
2020/12/07 03:51:47;;;;;;;15.38;7.63;;;-5.50;78.20;;;;;;5043273;28;20079;-67
2020/12/07 03:54:12;;;;;;;18.67;8.75;;;-5.50;78.10;;;;;;5042921;28;20459;-67
2020/12/07 03:56:38;;;;;;;17.42;8.45;;;-5.50;78.10;;;;;;5035794;28;20399;-68
2020/12/07 03:59:04;;;;;;;18.33;8.77;;;-5.50;78.20;;;;;;5045269;28;20021;-68
2020/12/07 04:01:30;;;;;;;20.45;10.73;;;-5.50;78.20;;;;;;5045843;28;20099;-68
2020/12/07 04:04:07;;;;;;;24.63;11.07;;;-5.50;78.20;;;;;;5043823;28;20459;-69
2020/12/07 04:06:40;;;;;;;21.00;10.00;;;-5.50;78.20;;;;;;5042124;28;20031;-70
2020/12/07 04:09:07;;;;;;;18.52;8.75;;;-5.50;78.20;;;;;;5043460;28;20028;-68
2020/12/07 04:11:33;;;;;;;18.75;9.82;;;-5.50;78.10;;;;;;5040865;28;20025;-67
2020/12/07 04:13:58;;;;;;;19.52;9.20;;;-5.50;78.10;;;;;;5043926;28;20079;-68
2020/12/07 04:16:28;;;;;;;16.65;8.38;;;-5.40;78.00;;;;;;5043884;28;20022;-68
2020/12/07 04:18:54;;;;;;;20.27;10.68;;;-5.50;78.00;;;;;;5040881;28;20028;-68
2020/12/07 04:21:19;;;;;;;20.08;9.05;;;-5.40;78.10;;;;;;5033517;28;20468;-68
2020/12/07 04:23:45;;;;;;;21.20;9.90;;;-5.50;78.00;;;;;;5044939;28;20025;-68
2020/12/07 04:26:11;;;;;;;15.57;8.63;;;-5.50;78.00;;;;;;5038596;28;20482;-68
2020/12/07 04:28:36;;;;;;;26.35;9.77;;;-5.50;78.00;;;;;;5044133;28;20025;-68
2020/12/07 04:31:02;;;;;;;17.33;7.88;;;-5.50;78.00;;;;;;5036751;28;20025;-68
2020/12/07 04:33:28;;;;;;;17.63;9.65;;;-5.50;77.80;;;;;;5036749;28;20482;-68
2020/12/07 04:35:54;;;;;;;14.60;7.38;;;-5.50;77.80;;;;;;5040785;28;20053;-68
2020/12/07 04:38:19;;;;;;;17.77;9.27;;;-5.50;77.80;;;;;;5042009;28;20031;-68
2020/12/07 04:40:46;;;;;;;21.42;9.85;;;-5.50;77.90;;;;;;5044643;28;20028;-68
2020/12/07 04:43:13;;;;;;;16.60;8.07;;;-5.50;78.00;;;;;;5044716;28;20415;-67
2020/12/07 04:45:39;;;;;;;13.77;6.82;;;-5.50;78.10;;;;;;5043450;28;20441;-68
2020/12/07 04:48:06;;;;;;;15.77;8.40;;;-5.50;77.90;;;;;;5036283;28;20117;-68
2020/12/07 04:50:32;;;;;;;23.95;8.27;;;-5.50;77.80;;;;;;5043206;28;20038;-68
2020/12/07 04:52:59;;;;;;;16.42;8.38;;;-5.60;77.90;;;;;;5040154;28;20018;-68
2020/12/07 04:55:25;;;;;;;20.85;8.93;;;-5.60;77.90;;;;;;5035427;28;20463;-68
2020/12/07 04:57:52;;;;;;;24.30;12.10;;;-5.50;78.00;;;;;;5041727;28;20029;-68
2020/12/07 05:00:22;;;;;;;16.48;8.20;;;-5.50;78.10;;;;;;5042949;28;20025;-68
2020/12/07 05:02:54;;;;;;;16.02;8.55;;;-5.60;78.10;;;;;;5042379;28;20052;-67
2020/12/07 05:05:20;;;;;;;21.25;9.55;;;-5.50;78.00;;;;;;5042947;28;20056;-68
2020/12/07 05:07:51;;;;;;;14.45;6.95;;;-5.50;77.90;;;;;;5033722;28;20120;-67
2020/12/07 05:10:24;;;;;;;23.10;10.23;;;-5.60;77.70;;;;;;5042851;28;20025;-68
2020/12/07 05:12:56;;;;;;;19.83;8.35;;;-5.60;77.60;;;;;;5036541;28;20025;-68
2020/12/07 05:15:23;;;;;;;16.88;7.82;;;-5.60;77.60;;;;;;5034241;28;20471;-68
2020/12/07 05:17:56;;;;;;;12.73;7.10;;;-5.60;77.60;;;;;;5041723;28;20017;-68
2020/12/07 05:20:23;;;;;;;22.60;10.20;;;-5.60;77.60;;;;;;5041410;28;20397;-67
2020/12/07 05:22:49;;;;;;;23.65;10.50;;;-5.70;77.60;;;;;;5040680;28;20021;-69
2020/12/07 05:25:16;;;;;;;23.48;10.85;;;-5.60;77.80;;;;;;5036178;28;20021;-67
2020/12/07 05:27:45;;;;;;;16.88;9.30;;;-5.60;77.70;;;;;;5036303;28;20025;-68
2020/12/07 05:32:48;;;;;;;20.63;10.25;;;-5.70;77.70;;;;;;5042218;28;20482;-68
2020/12/07 05:35:14;;;;;;;21.83;9.88;;;-5.70;77.70;;;;;;5042170;28;20030;-67
2020/12/07 05:37:40;;;;;;;20.92;9.38;;;-5.70;77.60;;;;;;5039571;28;20025;-67
2020/12/07 05:40:09;;;;;;;18.15;8.80;;;-5.70;77.50;;;;;;5041441;28;20056;-68
2020/12/07 05:42:36;;;;;;;26.85;10.43;;;-5.70;77.50;;;;;;5043912;28;20383;-69
2020/12/07 05:45:03;;;;;;;15.23;7.47;;;-5.70;77.60;;;;;;5043315;28;20026;-68
2020/12/07 05:47:32;;;;;;;15.15;7.78;;;-5.70;77.70;;;;;;5042228;28;20021;-68
2020/12/07 05:50:00;;;;;;;15.82;7.65;;;-5.70;77.70;;;;;;5044601;28;20052;-69
2020/12/07 05:52:41;;;;;;;17.58;8.50;;;-5.70;77.70;;;;;;5041194;28;20029;-67
2020/12/07 05:55:09;;;;;;;19.20;8.45;;;-5.60;77.80;;;;;;5040989;28;20117;-68
2020/12/07 05:58:00;;;;;;;25.33;9.95;;;-5.60;77.60;;;;;;5036940;28;20036;-67
2020/12/07 06:00:28;;;;;;;14.20;7.65;;;-5.50;78.10;;;;;;5038662;28;20033;-69
2020/12/07 06:02:54;;;;;;;29.75;10.02;;;-5.30;78.30;;;;;;5046289;28;20102;-69
2020/12/07 06:05:22;;;;;;;31.27;10.57;;;-5.10;78.30;;;;;;5043957;28;20455;-72
2020/12/07 06:07:54;;;;;;;25.42;9.50;;;-4.80;78.10;;;;;;5047413;28;20083;-69
2020/12/07 06:10:23;;;;;;;30.27;10.63;;;-4.70;77.10;;;;;;5031505;28;20084;-69
2020/12/07 06:12:53;;;;;;;21.83;8.07;;;-4.80;76.20;;;;;;5043419;28;20013;-70
2020/12/07 06:15:20;;;;;;;15.02;7.13;;;-4.80;76.10;;;;;;5033358;28;20029;-70
2020/12/07 06:17:50;;;;;;;21.20;9.38;;;-4.90;76.20;;;;;;5040607;28;20475;-69
2020/12/07 06:20:37;;;;;;;18.35;7.45;;;-4.80;76.30;;;;;;5043528;28;20099;-69
2020/12/07 06:23:03;;;;;;;22.65;9.10;;;-4.80;75.90;;;;;;5061848;28;20418;-68
2020/12/07 06:25:33;;;;;;;14.57;7.28;;;-4.80;75.80;;;;;;5044444;28;20029;-68
2020/12/07 06:28:03;;;;;;;19.15;8.75;;;-4.70;75.80;;;;;;5039608;28;20490;-70
2020/12/07 06:30:36;;;;;;;20.77;9.30;;;-4.70;75.60;;;;;;5038320;28;20040;-69
2020/12/07 06:33:07;;;;;;;24.13;7.72;;;-4.60;75.70;;;;;;5041877;28;20113;-69
2020/12/07 06:35:41;;;;;;;20.25;7.28;;;-4.40;76.10;;;;;;5035006;28;20030;-69
2020/12/07 06:38:07;;;;;;;17.38;8.07;;;-4.10;76.90;;;;;;5042921;28;20479;-68
2020/12/07 06:40:36;;;;;;;11.90;5.53;;;-3.80;75.80;;;;;;5044760;28;20032;-68
2020/12/07 06:43:16;;;;;;;28.40;12.18;;;-3.70;74.30;;;;;;5038100;28;20021;-68
2020/12/07 06:45:41;;;;;;;20.38;8.90;;;-3.60;74.60;;;;;;5043994;28;20052;-69
2020/12/07 06:48:16;;;;;;;17.92;8.68;;;-3.60;73.10;;;;;;5041758;28;20026;-69
2020/12/07 06:50:44;;;;;;;14.95;8.55;;;-3.50;73.20;;;;;;5032078;28;20026;-70
2020/12/07 06:53:21;;;;;;;19.33;8.90;;;-3.40;73.10;;;;;;5041581;28;20071;-69
2020/12/07 06:55:46;;;;;;;18.15;7.30;;;-3.00;74.90;;;;;;5042326;28;20075;-69
2020/12/07 06:58:34;;;;;;;16.73;8.65;;;-2.60;73.50;;;;;;5040995;28;20022;-69
2020/12/07 07:01:10;;;;;;;22.63;8.18;;;-2.20;73.40;;;;;;5050505;28;20025;-69
2020/12/07 07:03:52;;;;;;;22.08;10.18;;;-1.90;72.80;;;;;;5046043;28;20127;-66
2020/12/07 07:06:20;;;;;;;24.40;10.60;;;-1.50;72.40;;;;;;5044186;28;20155;-69
2020/12/07 07:08:46;;;;;;;18.30;7.57;;;-1.20;70.20;;;;;;5043158;28;20029;-68
2020/12/07 07:11:12;;;;;;;28.23;12.15;;;-1.30;68.70;;;;;;5045366;28;20033;-69
2020/12/07 07:13:38;;;;;;;19.95;9.93;;;-1.30;68.80;;;;;;5043266;28;20070;-78
2020/12/07 07:16:06;;;;;;;25.17;11.30;;;-1.30;67.20;;;;;;5044604;28;20066;-78
2020/12/07 07:18:32;;;;;;;23.38;11.95;;;-1.50;66.60;;;;;;5042768;28;20036;-76
2020/12/07 07:21:02;;;;;;;15.30;7.30;;;-1.50;68.30;;;;;;5047440;28;20033;-67
2020/12/07 07:23:28;;;;;;;22.20;9.15;;;-1.40;67.30;;;;;;5049811;28;20025;-64
2020/12/07 07:26:08;;;;;;;20.35;9.70;;;-1.20;67.50;;;;;;5043269;28;20029;-66
2020/12/07 07:28:35;;;;;;;54.67;19.73;;;-0.90;67.70;;;;;;5044628;28;20025;-67
2020/12/07 07:31:04;;;;;;;38.80;15.68;;;-0.70;66.70;;;;;;5042761;28;20504;-67
2020/12/07 07:33:31;;;;;;;24.55;10.50;;;-0.40;67.00;;;;;;5058963;28;20030;-68
2020/12/07 07:35:57;;;;;;;26.27;11.38;;;0.00;65.40;;;;;;5035264;28;20025;-67
2020/12/07 07:38:33;;;;;;;24.10;8.05;;;0.20;64.90;;;;;;5038692;28;20152;-67
2020/12/07 07:41:02;;;;;;;13.75;7.57;;;0.40;64.80;;;;;;5043334;28;20048;-71
2020/12/07 07:43:29;;;;;;;12.63;6.90;;;0.40;62.90;;;;;;5044737;28;20056;-68
2020/12/07 07:46:02;;;;;;;12.88;6.03;;;0.70;63.10;;;;;;5044559;28;20056;-68
2020/12/07 07:48:38;;;;;;;14.75;8.95;;;0.60;60.80;;;;;;5044431;28;20025;-67
2020/12/07 07:52:22;;;;;;;;;;;0.50;60.20;;;;;;5036004;28;20438;-68
2020/12/07 08:16:27;;;;;;;19.05;9.30;;;1.40;55.20;;;;;;5042246;28;20041;-68
2020/12/07 08:18:58;;;;;;;35.22;14.63;;;1.30;55.50;;;;;;5043172;28;20021;-67
2020/12/07 08:21:29;;;;;;;38.75;15.35;;;1.40;55.70;;;;;;5043623;28;20021;-67
2020/12/07 08:23:59;;;;;;;14.07;6.38;;;1.60;56.60;;;;;;5041338;28;20100;-67
2020/12/07 08:26:25;;;;;;;14.23;7.25;;;1.80;55.10;;;;;;5045602;28;20477;-67
2020/12/07 08:28:53;;;;;;;21.70;8.25;;;1.70;54.50;;;;;;5045739;28;20574;-68
2020/12/07 08:31:22;;;;;;;16.48;7.78;;;1.70;54.20;;;;;;5044421;28;20021;-68
2020/12/07 08:34:14;;;;;;;24.55;10.35;;;1.90;54.40;;;;;;5043993;28;20036;-68
2020/12/07 08:36:45;;;;;;;23.13;9.00;;;2.00;54.30;;;;;;5042822;28;20025;-68
2020/12/07 08:39:10;;;;;;;20.17;9.88;;;1.90;53.10;;;;;;5039446;28;20047;-67
2020/12/07 08:41:37;;;;;;;22.30;7.95;;;2.00;54.10;;;;;;5041907;28;20124;-68
2020/12/07 08:44:05;;;;;;;17.42;10.10;;;2.00;53.60;;;;;;5041975;28;20030;-68
2020/12/07 08:46:33;;;;;;;19.08;6.95;;;2.00;52.70;;;;;;5044501;28;20100;-67
2020/12/07 08:49:00;;;;;;;17.42;7.93;;;2.10;52.50;;;;;;5043800;28;20017;-67
2020/12/07 08:51:27;;;;;;;23.17;9.13;;;1.90;52.10;;;;;;5043301;28;20037;-68
2020/12/07 08:53:54;;;;;;;21.70;9.05;;;2.00;52.80;;;;;;5043474;28;20101;-68
2020/12/07 08:56:20;;;;;;;12.75;5.50;;;2.10;53.00;;;;;;5040941;28;20021;-68
2020/12/07 08:58:45;;;;;;;14.55;6.18;;;1.90;51.50;;;;;;5039445;28;20052;-68
2020/12/07 09:01:12;;;;;;;15.13;7.95;;;1.60;51.40;;;;;;5041518;28;20506;-68
2020/12/07 09:03:41;;;;;;;22.38;9.65;;;1.60;53.00;;;;;;5044148;28;20100;-68
2020/12/07 09:06:08;;;;;;;15.07;7.20;;;1.50;52.20;;;;;;5043585;28;20513;-68
2020/12/07 09:08:35;;;;;;;17.02;8.13;;;1.40;52.10;;;;;;5042963;28;20070;-67
2020/12/07 09:11:04;;;;;;;13.23;7.18;;;1.30;52.10;;;;;;5036109;28;20025;-66
2020/12/07 09:13:30;;;;;;;17.27;8.43;;;1.30;52.50;;;;;;5043671;28;20053;-67
2020/12/07 09:15:56;;;;;;;23.38;7.88;;;1.50;54.10;;;;;;5043585;28;20478;-67
2020/12/07 09:18:22;;;;;;;16.88;8.52;;;1.70;52.50;;;;;;5042923;28;20055;-68
2020/12/07 09:20:48;;;;;;;16.10;6.32;;;1.60;52.60;;;;;;5044862;28;20032;-67
2020/12/07 09:23:15;;;;;;;20.77;8.60;;;1.80;52.70;;;;;;5041655;28;20021;-66
2020/12/07 09:25:41;;;;;;;18.70;8.00;;;1.90;52.30;;;;;;5039494;28;20044;-69
2020/12/07 09:28:08;;;;;;;21.08;9.20;;;2.10;52.50;;;;;;5034836;28;20057;-67
2020/12/07 09:30:33;;;;;;;16.50;7.97;;;2.10;52.70;;;;;;5036949;28;20044;-66
2020/12/07 09:32:59;;;;;;;13.40;6.20;;;2.30;52.10;;;;;;5040673;28;20364;-66
2020/12/07 09:35:25;;;;;;;14.63;7.28;;;2.30;51.30;;;;;;5043021;28;20036;-66
2020/12/07 09:37:51;;;;;;;13.13;7.13;;;2.30;51.50;;;;;;5041770;28;20096;-67
2020/12/07 09:40:16;;;;;;;18.08;9.68;;;2.40;51.30;;;;;;5042085;28;20091;-66
2020/12/07 09:42:42;;;;;;;19.23;8.18;;;2.40;51.40;;;;;;5039918;28;20048;-67
2020/12/07 09:45:09;;;;;;;29.90;16.05;;;2.20;51.40;;;;;;5038667;28;20025;-67
2020/12/07 09:47:35;;;;;;;22.60;10.30;;;2.30;51.60;;;;;;5044055;28;20090;-67
2020/12/07 09:50:10;;;;;;;27.00;10.18;;;2.30;52.00;;;;;;5042626;28;20459;-66
2020/12/07 09:52:37;;;;;;;17.00;7.88;;;2.60;51.80;;;;;;5042779;28;20028;-68
2020/12/07 09:55:06;;;;;;;18.65;8.88;;;2.50;50.60;;;;;;5039570;28;20033;-67
2020/12/07 09:57:33;;;;;;;22.80;12.13;;;2.60;50.70;;;;;;5041433;28;20545;-66
2020/12/07 09:59:59;;;;;;;26.58;10.95;;;2.30;50.40;;;;;;5041006;28;20493;-66
2020/12/07 10:02:24;;;;;;;28.67;11.57;;;2.20;50.50;;;;;;5043043;28;20045;-66
2020/12/07 10:04:50;;;;;;;18.73;8.30;;;2.20;51.40;;;;;;5042003;28;20513;-66
2020/12/07 10:07:16;;;;;;;54.72;18.23;;;2.50;51.40;;;;;;5042176;28;20161;-66
2020/12/07 10:09:42;;;;;;;36.00;12.10;;;2.60;50.90;;;;;;5043288;28;20047;-70
2020/12/07 10:12:08;;;;;;;19.30;9.02;;;2.40;51.00;;;;;;5042645;28;20490;-67
2020/12/07 10:14:34;;;;;;;35.28;13.88;;;2.50;51.70;;;;;;5042416;28;20029;-66
2020/12/07 10:17:00;;;;;;;47.33;18.40;;;2.70;51.20;;;;;;5040742;28;20021;-65
2020/12/07 10:19:26;;;;;;;51.38;17.77;;;2.70;50.70;;;;;;5041674;28;20021;-66
2020/12/07 10:21:52;;;;;;;35.95;13.07;;;2.50;50.20;;;;;;5041274;28;20379;-66
2020/12/07 10:24:18;;;;;;;31.15;13.93;;;2.60;52.20;;;;;;5041654;28;20020;-67
2020/12/07 10:26:44;;;;;;;22.45;10.45;;;3.10;52.60;;;;;;5040994;28;20021;-68
2020/12/07 10:29:10;;;;;;;15.93;7.03;;;3.50;51.90;;;;;;5038850;28;20025;-67
2020/12/07 10:31:38;;;;;;;16.70;8.40;;;3.50;49.60;;;;;;5042985;28;20489;-67
2020/12/07 10:34:04;;;;;;;22.10;11.25;;;3.20;49.60;;;;;;5039164;28;20021;-67
2020/12/07 10:36:30;;;;;;;47.97;16.98;;;3.00;49.70;;;;;;5045284;28;20021;-66
2020/12/07 10:38:56;;;;;;;36.90;12.68;;;3.10;50.40;;;;;;5044814;28;20024;-70
2020/12/07 10:41:28;;;;;;;40.25;17.58;;;3.10;49.80;;;;;;5045370;28;20067;-65
2020/12/07 10:43:54;;;;;;;25.92;12.90;;;3.10;49.90;;;;;;5037872;28;20430;-67
2020/12/07 10:46:19;;;;;;;46.42;14.55;;;3.10;50.00;;;;;;5044928;28;20032;-67
2020/12/07 10:48:45;;;;;;;63.30;20.83;;;3.30;50.10;;;;;;5046041;28;20352;-67
2020/12/07 10:51:12;;;;;;;35.22;12.82;;;3.30;49.60;;;;;;5048056;28;20029;-67
2020/12/07 10:53:38;;;;;;;34.78;14.38;;;3.30;49.50;;;;;;5037795;28;20037;-66
2020/12/07 10:56:05;;;;;;;33.85;15.27;;;3.20;49.30;;;;;;5045077;28;20037;-68
2020/12/07 10:58:31;;;;;;;44.97;21.23;;;3.00;49.00;;;;;;5045402;28;20060;-67
2020/12/07 11:00:57;;;;;;;54.03;21.67;;;3.00;49.60;;;;;;5044225;28;20056;-67
2020/12/07 11:03:22;;;;;;;46.33;21.58;;;2.90;49.50;;;;;;5048261;28;20045;-67
2020/12/07 11:05:48;;;;;;;24.08;8.65;;;2.90;49.60;;;;;;5046412;28;20405;-67
2020/12/07 11:08:27;;;;;;;21.52;11.40;;;2.90;49.70;;;;;;5041108;28;20029;-67
2020/12/07 11:10:54;;;;;;;20.05;9.82;;;2.90;49.90;;;;;;5044356;28;20025;-67
2020/12/07 11:13:28;;;;;;;17.52;7.28;;;2.90;50.20;;;;;;5040314;28;20063;-66
2020/12/07 11:16:01;;;;;;;16.10;7.90;;;3.00;49.70;;;;;;5037963;28;20087;-66
2020/12/07 11:18:29;;;;;;;22.02;8.20;;;3.00;50.10;;;;;;5038371;28;20033;-66
2020/12/07 11:20:55;;;;;;;15.00;7.40;;;2.90;49.90;;;;;;5037852;28;20022;-67
2020/12/07 11:23:21;;;;;;;17.02;8.30;;;2.90;50.10;;;;;;5042670;28;20070;-67
2020/12/07 11:25:47;;;;;;;16.60;6.40;;;2.90;50.20;;;;;;5045761;28;20033;-67
2020/12/07 11:28:12;;;;;;;20.83;8.48;;;3.00;50.40;;;;;;5044151;28;20025;-66
2020/12/07 11:30:38;;;;;;;28.40;10.73;;;2.90;49.50;;;;;;5043081;28;20025;-67
2020/12/07 11:33:04;;;;;;;32.78;14.15;;;2.70;49.40;;;;;;5045731;28;20065;-71
2020/12/07 11:35:29;;;;;;;16.50;8.18;;;2.50;49.50;;;;;;5045052;28;20055;-66
2020/12/07 11:38:08;;;;;;;14.10;7.65;;;2.50;50.20;;;;;;5048486;28;20014;-66
2020/12/07 11:43:16;;;;;;;21.05;9.88;;;2.10;50.10;;;;;;5043652;28;20021;-67
2020/12/07 11:45:42;;;;;;;24.45;9.98;;;2.20;51.00;;;;;;5039765;28;20030;-67
2020/12/07 11:48:09;;;;;;;27.58;10.75;;;2.30;51.10;;;;;;5038202;28;20114;-67
2020/12/07 11:50:36;;;;;;;31.35;12.88;;;2.30;50.80;;;;;;5048300;28;20041;-70
2020/12/07 11:53:02;;;;;;;24.25;11.23;;;2.40;50.80;;;;;;5044301;28;20021;-66
2020/12/07 11:55:28;;;;;;;19.50;7.85;;;2.30;50.50;;;;;;5044296;28;20029;-67
2020/12/07 11:57:54;;;;;;;20.50;7.72;;;2.20;50.50;;;;;;5043958;28;20472;-66
2020/12/07 12:00:19;;;;;;;17.95;7.47;;;2.00;50.30;;;;;;5041473;28;20032;-66
2020/12/07 12:02:45;;;;;;;18.30;7.90;;;1.90;50.40;;;;;;5048247;28;20144;-68
2020/12/07 12:05:11;;;;;;;18.10;8.75;;;1.80;50.90;;;;;;5039056;28;20025;-66
2020/12/07 12:07:36;;;;;;;36.80;15.77;;;1.80;51.50;;;;;;5038364;28;20113;-66
2020/12/07 12:10:02;;;;;;;61.75;23.40;;;1.80;51.20;;;;;;5042216;28;20033;-67
2020/12/07 12:12:28;;;;;;;48.55;20.08;;;1.70;51.40;;;;;;5035553;28;20460;-66
2020/12/07 12:14:54;;;;;;;97.10;32.83;;;1.70;51.60;;;;;;5039165;28;20028;-66
2020/12/07 12:17:19;;;;;;;88.40;32.50;;;1.60;51.30;;;;;;5045243;28;20083;-65
2020/12/07 12:19:45;;;;;;;68.60;28.88;;;1.40;51.20;;;;;;5044498;28;20442;-67
2020/12/07 12:22:11;;;;;;;31.40;17.15;;;1.20;51.60;;;;;;5044706;28;20360;-65
2020/12/07 12:24:37;;;;;;;21.98;10.02;;;1.10;52.00;;;;;;5043080;28;20039;-66
2020/12/07 12:27:02;;;;;;;19.05;8.70;;;1.00;52.40;;;;;;5042631;28;20021;-68
2020/12/07 12:29:28;;;;;;;28.67;10.85;;;0.90;52.70;;;;;;5043550;28;20076;-65
2020/12/07 12:31:54;;;;;;;13.77;7.20;;;0.80;53.00;;;;;;5038534;28;20053;-66
2020/12/07 12:34:20;;;;;;;17.88;8.02;;;0.70;53.20;;;;;;5046452;28;20078;-66
2020/12/07 12:36:47;;;;;;;21.52;9.30;;;0.60;53.40;;;;;;5043328;28;20034;-69
2020/12/07 12:39:14;;;;;;;17.02;7.38;;;0.50;53.80;;;;;;5037092;28;20025;-66
2020/12/07 12:41:40;;;;;;;24.83;8.73;;;0.50;54.00;;;;;;5036816;28;20526;-67
2020/12/07 12:44:08;;;;;;;21.45;9.55;;;0.30;53.80;;;;;;5043532;28;20136;-69
2020/12/07 12:46:38;;;;;;;31.58;13.30;;;0.10;54.10;;;;;;5041505;28;20021;-66
2020/12/07 12:49:04;;;;;;;28.08;10.80;;;0.00;54.50;;;;;;5034712;28;20159;-67
2020/12/07 12:51:33;;;;;;;19.77;7.82;;;-0.10;54.90;;;;;;5043767;28;20077;-66
2020/12/07 12:53:59;;;;;;;18.88;8.60;;;-0.30;55.20;;;;;;5047140;28;20025;-66
2020/12/07 12:56:25;;;;;;;20.73;9.68;;;-0.40;55.80;;;;;;5041525;28;20028;-66
2020/12/07 12:58:51;;;;;;;31.95;12.93;;;-0.60;56.00;;;;;;5040258;28;20032;-66
2020/12/07 13:01:17;;;;;;;32.15;11.95;;;-0.80;56.50;;;;;;5034592;28;20116;-67
2020/12/07 13:03:42;;;;;;;46.38;16.08;;;-1.00;56.80;;;;;;5034753;28;20041;-66
2020/12/07 13:06:08;;;;;;;30.67;10.75;;;-1.20;57.30;;;;;;5043784;28;20041;-68